Main page
METAR-TAF:

METAR-TAF

Airports :

Chariton Municipal Airport

Chariton, Iowa, United States

latitude: 41-02N, longitude: 093-22W, elevation: 1050 ft

Current weather observation

The report was made 24 minutes ago, at 01:55 UTC
Wind 20 mph from the South/Southwest
Temperature 63°F
Humidity 42%
Pressure 29.78 in. Hg
Visibility: 10 miles
Broken clouds at a height of 6000 ft

METAR: KCNC 230155Z AUTO 20017KT 10SM BKN060 17/04 A2978 RMK AO2

Time: 21:19 (02:19 UTC)


TAF: missing

Weather observations and forecasts of more than 4000 airports (METAR and TAF reports).

The available stations are represented by yellow and red dots on the map.

Hover mouse over dot to see the name of the station.

Then click to see weather observations and forecasts.

To change the map : click on the green buttons with a black cross to zoom in, on the green button with a dash to zoom out, or on the green arrows for adjacent maps.


METAR-TAF: